createdAt,value
2023-04-10T00:03:52.002Z,4.62
2023-04-10T00:08:43.881Z,7.08
2023-04-10T00:13:35.865Z,6.64
2023-04-10T00:18:28.737Z,6.39
2023-04-10T00:23:20.435Z,5.26
2023-04-10T00:28:12.114Z,3.59
2023-04-10T00:33:04.118Z,4.38
2023-04-10T00:37:56.986Z,6.23
2023-04-10T00:42:49.038Z,6.63
2023-04-10T00:47:41.487Z,4.73
2023-04-10T00:52:33.511Z,6.29
2023-04-10T00:57:26.470Z,5.95
2023-04-10T01:02:19.289Z,3.74
2023-04-10T01:07:39.139Z,6.75
2023-04-10T01:13:05.969Z,6.68
2023-04-10T01:18:10.186Z,4.38
2023-04-10T01:23:24.456Z,6.60
2023-04-10T01:28:19.357Z,6.66
2023-04-10T01:33:14.029Z,6.69
2023-04-10T01:38:07.589Z,4.39
2023-04-10T01:43:01.612Z,6.71
2023-04-10T01:48:05.678Z,6.10
2023-04-10T01:52:58.695Z,3.62
2023-04-10T01:57:53.555Z,5.47
2023-04-10T02:02:46.654Z,4.05
2023-04-10T02:07:41.749Z,6.65
2023-04-10T02:12:42.118Z,6.68
2023-04-10T02:17:36.290Z,4.77
2023-04-10T02:22:29.063Z,4.96
2023-04-10T02:27:31.355Z,6.62
2023-04-10T02:32:24.365Z,5.49
2023-04-10T02:37:16.707Z,3.98
2023-04-10T02:42:08.566Z,5.37
2023-04-10T02:47:01.433Z,5.99
2023-04-10T02:51:55.575Z,6.45
2023-04-10T02:56:47.890Z,4.68
2023-04-10T03:01:39.847Z,3.73
2023-04-10T03:06:31.903Z,3.40
2023-04-10T03:11:23.913Z,5.86
2023-04-10T03:16:17.632Z,6.41
2023-04-10T03:21:09.991Z,6.43
2023-04-10T03:26:01.917Z,5.96
2023-04-10T03:30:56.583Z,4.75
2023-04-10T03:35:48.570Z,5.79
2023-04-10T03:40:40.334Z,5.49
2023-04-10T03:45:34.632Z,3.93
2023-04-10T03:50:27.441Z,6.32
2023-04-10T03:55:23.713Z,6.16
2023-04-10T04:00:17.519Z,6.21
2023-04-10T04:05:13.064Z,5.99
2023-04-10T04:10:12.370Z,5.20
2023-04-10T04:15:25.803Z,4.38
2023-04-10T04:20:44.690Z,5.63
2023-04-10T04:25:56.933Z,4.69
2023-04-10T04:31:07.372Z,4.43
2023-04-10T04:36:22.318Z,4.76
2023-04-10T04:41:43.445Z,4.65
2023-04-10T04:46:55.182Z,5.00
2023-04-10T04:52:16.494Z,5.59
2023-04-10T04:57:12.174Z,6.00
2023-04-10T05:02:30.837Z,4.82
2023-04-10T05:07:41.795Z,5.60
2023-04-10T05:12:53.891Z,6.16
2023-04-10T05:17:51.231Z,5.03
2023-04-10T05:23:06.483Z,5.90
2023-04-10T05:28:18.427Z,5.83
2023-04-10T05:33:41.915Z,5.87
2023-04-10T05:38:42.704Z,6.19
2023-04-10T05:44:03.868Z,7.47
2023-04-10T05:49:14.836Z,6.44
2023-04-10T05:54:32.448Z,7.33
2023-04-10T05:59:42.988Z,9.30
2023-04-10T06:04:52.581Z,8.11
2023-04-10T06:09:45.309Z,8.30
2023-04-10T06:14:37.002Z,8.64
2023-04-10T06:19:29.002Z,10.92
2023-04-10T06:24:23.949Z,10.96
2023-04-10T06:29:16.917Z,12.67
2023-04-10T06:34:08.708Z,12.74
2023-04-10T06:39:02.898Z,13.62
2023-04-10T06:43:54.702Z,16.17
2023-04-10T06:48:46.415Z,16.44
2023-04-10T06:53:38.008Z,16.20
2023-04-10T06:58:30.042Z,14.54
2023-04-10T07:03:21.777Z,14.26
2023-04-10T07:08:13.512Z,16.23
2023-04-10T07:13:05.919Z,16.69
2023-04-10T07:17:57.926Z,17.80
2023-04-10T07:22:49.686Z,16.31
2023-04-10T07:27:41.460Z,13.78
2023-04-10T07:32:36.090Z,15.69
2023-04-10T07:37:28.071Z,16.78
2023-04-10T07:42:19.865Z,15.55
2023-04-10T07:47:11.613Z,12.99
2023-04-10T07:52:03.571Z,14.18
2023-04-10T07:56:55.391Z,16.37
2023-04-10T08:01:47.241Z,17.08
2023-04-10T08:06:39.005Z,15.59
2023-04-10T08:11:35.301Z,14.65
2023-04-10T08:16:30.509Z,17.46
2023-04-10T08:21:23.269Z,16.39
2023-04-10T13:25:49.802Z,19.62
2023-04-10T13:30:42.479Z,20.49
2023-04-10T13:35:34.450Z,19.34
2023-04-10T13:40:26.169Z,20.65
2023-04-10T13:45:17.986Z,19.95
2023-04-10T13:50:10.355Z,19.18
2023-04-10T13:55:02.051Z,18.47
2023-04-10T13:59:53.839Z,19.14
2023-04-10T14:04:46.266Z,20.18
2023-04-10T14:09:38.552Z,21.02
2023-04-10T14:14:30.720Z,20.37
2023-04-10T14:19:22.528Z,20.71
2023-04-10T14:24:14.285Z,20.16
2023-04-10T14:29:08.569Z,19.88
2023-04-10T14:34:00.520Z,18.85
2023-04-10T14:38:52.434Z,19.02
2023-04-10T14:43:44.830Z,19.76
2023-04-10T14:48:36.718Z,19.14
2023-04-10T14:53:28.505Z,20.21
2023-04-10T14:58:20.254Z,19.83
2023-04-10T15:03:12.153Z,19.38
2023-04-10T15:08:03.995Z,17.11
2023-04-10T15:12:55.842Z,18.29
2023-04-10T15:17:47.664Z,19.49
2023-04-10T15:22:40.460Z,18.06
2023-04-10T15:27:32.210Z,16.46
2023-04-10T15:32:24.002Z,18.58
2023-04-10T15:37:15.858Z,17.17
2023-04-10T15:42:08.469Z,17.57
2023-04-10T15:47:00.309Z,16.83
2023-04-10T15:51:52.047Z,16.88
2023-04-10T15:56:43.904Z,16.13
2023-04-10T16:01:35.769Z,15.81
2023-04-10T16:06:28.170Z,15.27
2023-04-10T16:11:22.245Z,16.75
2023-04-10T16:16:18.211Z,16.25
2023-04-10T16:21:10.044Z,16.22
2023-04-10T16:26:01.840Z,16.72
2023-04-10T16:30:53.614Z,16.53
2023-04-10T16:35:45.565Z,15.91
2023-04-10T16:40:38.811Z,14.57
2023-04-10T16:45:30.554Z,14.28
2023-04-10T16:50:22.448Z,14.12
2023-04-10T16:55:14.353Z,14.03
2023-04-10T17:00:06.802Z,15.49
2023-04-10T17:04:58.607Z,14.00
2023-04-10T17:09:50.773Z,14.53
2023-04-10T17:14:42.739Z,13.34
2023-04-10T17:19:34.512Z,13.50
2023-04-10T17:24:26.316Z,14.35
2023-04-10T17:29:18.173Z,13.60
2023-04-10T17:34:09.914Z,15.29
2023-04-10T17:39:01.678Z,14.41
2023-04-10T17:43:53.464Z,14.43
2023-04-10T17:48:46.017Z,15.20
2023-04-10T17:53:37.851Z,13.59
2023-04-10T17:58:29.832Z,14.99
2023-04-10T18:03:21.693Z,14.56
2023-04-10T18:08:14.521Z,14.02
2023-04-10T18:13:06.582Z,12.14
2023-04-10T18:17:58.378Z,14.31
2023-04-10T18:22:50.286Z,14.18
2023-04-10T18:28:04.315Z,13.73
2023-04-10T18:32:58.117Z,14.55
2023-04-10T18:37:49.894Z,13.90
2023-04-10T18:42:41.588Z,13.88
2023-04-10T18:47:34.179Z,14.17
2023-04-10T18:52:27.215Z,12.97
2023-04-10T18:57:18.880Z,12.53
2023-04-10T19:02:10.985Z,14.73
2023-04-10T19:07:03.782Z,13.04
2023-04-10T19:11:56.254Z,14.30
2023-04-10T19:16:47.997Z,12.64
2023-04-10T19:21:39.776Z,12.21
2023-04-10T19:26:31.698Z,11.94
2023-04-10T19:31:24.072Z,13.12
2023-04-10T19:36:18.081Z,12.20
2023-04-10T19:41:14.803Z,12.78
2023-04-10T19:46:06.830Z,11.85
2023-04-10T19:51:07.612Z,12.30
2023-04-10T19:55:59.332Z,12.46
2023-04-10T20:00:52.015Z,11.36
2023-04-10T20:05:43.952Z,12.02
2023-04-10T20:10:35.788Z,8.92
2023-04-10T20:15:27.508Z,12.54
2023-04-10T20:20:19.282Z,10.78
2023-04-10T20:25:11.199Z,10.49
2023-04-10T20:30:03.118Z,10.32
2023-04-10T20:34:54.882Z,11.13
2023-04-10T20:39:46.739Z,11.47
2023-04-10T20:44:38.937Z,10.66
2023-04-10T20:49:31.205Z,10.36
2023-04-10T20:54:23.961Z,11.47
2023-04-10T20:59:15.699Z,9.70
2023-04-10T21:04:07.554Z,11.33
2023-04-10T21:08:59.429Z,10.09
2023-04-10T21:13:51.478Z,10.46
2023-04-10T21:18:43.320Z,9.28
2023-04-10T21:23:35.080Z,10.43
2023-04-10T21:28:26.798Z,7.26
2023-04-10T21:33:18.493Z,9.95
2023-04-10T21:38:11.849Z,10.01
2023-04-10T21:43:04.210Z,8.36
2023-04-10T21:47:55.973Z,10.11
2023-04-10T21:52:48.078Z,10.58
2023-04-10T21:57:39.851Z,7.47
2023-04-10T22:02:31.688Z,9.65
2023-04-10T22:07:23.523Z,10.15
2023-04-10T22:12:15.332Z,9.13
2023-04-10T22:17:07.141Z,7.26
2023-04-10T22:21:59.011Z,8.90
2023-04-10T22:26:50.803Z,9.13
2023-04-10T22:31:44.014Z,8.13
2023-04-10T22:36:35.890Z,8.56
2023-04-10T22:41:28.463Z,9.83
2023-04-10T22:46:20.266Z,7.36
2023-04-10T22:51:12.585Z,7.80
2023-04-10T22:56:05.728Z,8.66
2023-04-10T23:00:57.426Z,7.61
2023-04-10T23:05:49.223Z,7.81
2023-04-10T23:10:41.030Z,7.69
2023-04-10T23:15:32.937Z,9.39
2023-04-10T23:20:25.367Z,9.59
2023-04-10T23:25:17.128Z,7.53
2023-04-10T23:30:09.038Z,7.48
2023-04-10T23:35:00.991Z,7.27
2023-04-10T23:39:52.813Z,7.60
2023-04-10T23:44:44.559Z,9.34
2023-04-10T23:49:36.302Z,7.73
2023-04-10T23:54:29.739Z,8.58
2023-04-10T23:59:21.506Z,7.13
